Time;durP1;ratioP1;P1;durP2;ratioP2;P2;SDS_P1;SDS_P2;PMS_P1;PMS_P2;Temp;Humidity;BMP_temperature;BMP_pressure;BME280_temperature;BME280_humidity;BME280_pressure;Samples;Min_cycle;Max_cycle;Signal;HPM_P1;HPM_P2
2021/07/25 00:01:44;;;;;;;25.88;19.08;;;;;;;21.25;55.84;98205.13;5091617;28;20024;-72
2021/07/25 00:04:10;;;;;;;30.13;19.42;;;;;;;21.22;55.92;98197.53;5090910;28;20055;-73
2021/07/25 00:06:35;;;;;;;28.95;20.35;;;;;;;21.22;55.96;98191.94;5091590;28;20028;-72
2021/07/25 00:09:01;;;;;;;25.65;19.67;;;;;;;21.24;56.24;98192.38;5091908;28;20020;-72
2021/07/25 00:11:27;;;;;;;29.58;19.80;;;;;;;21.24;56.25;98198.75;5091747;28;20043;-73
2021/07/25 00:13:57;;;;;;;27.17;19.70;;;;;;;21.23;56.03;98187.97;5091825;28;20478;-73
2021/07/25 00:16:22;;;;;;;25.83;19.73;;;;;;;21.23;56.26;98187.97;5092011;28;20020;-72
2021/07/25 00:18:47;;;;;;;25.23;19.33;;;;;;;21.23;56.17;98185.97;5092288;28;20474;-73
2021/07/25 00:21:13;;;;;;;26.27;18.77;;;;;;;21.22;56.37;98178.78;5091734;28;20028;-73
2021/07/25 00:23:44;;;;;;;27.92;19.70;;;;;;;21.20;56.36;98181.16;5091776;28;20048;-73
2021/07/25 00:26:12;;;;;;;29.45;19.83;;;;;;;21.18;56.45;98175.16;5092546;28;20020;-72
2021/07/25 00:28:39;;;;;;;30.30;21.30;;;;;;;21.18;56.39;98177.94;5092037;28;20032;-73
2021/07/25 00:31:05;;;;;;;28.77;19.92;;;;;;;21.17;56.76;98172.72;5092027;28;20048;-72
2021/07/25 00:33:32;;;;;;;29.20;20.83;;;;;;;21.14;56.81;98165.13;5090423;28;20075;-71
2021/07/25 00:35:59;;;;;;;29.75;20.60;;;;;;;21.08;56.60;98161.84;5092015;28;20539;-72
2021/07/25 00:38:25;;;;;;;30.63;20.23;;;;;;;21.05;57.01;98157.81;5091346;28;20469;-72
2021/07/25 00:40:55;;;;;;;26.67;20.08;;;;;;;21.00;57.22;98151.75;5090000;28;20032;-73
2021/07/25 00:43:27;;;;;;;27.02;20.35;;;;;;;20.98;57.07;98157.72;5088973;28;20020;-74
2021/07/25 00:45:54;;;;;;;27.08;19.95;;;;;;;20.95;56.82;98150.91;5089106;28;20485;-73
2021/07/25 00:48:20;;;;;;;28.73;20.25;;;;;;;20.91;57.27;98161.19;5091257;28;20016;-73
2021/07/25 00:50:46;;;;;;;28.83;22.50;;;;;;;20.89;57.57;98152.38;5091355;28;20090;-73
2021/07/25 00:53:11;;;;;;;30.60;20.80;;;;;;;20.86;57.47;98144.75;5091130;28;20032;-73
2021/07/25 00:55:37;;;;;;;28.45;19.95;;;;;;;20.80;57.33;98149.84;5091437;28;20436;-73
2021/07/25 00:58:02;;;;;;;29.55;21.35;;;;;;;20.78;57.57;98143.84;5090972;28;20024;-74
2021/07/25 01:00:27;;;;;;;30.23;22.17;;;;;;;20.74;57.74;98142.16;5090339;28;20071;-74
2021/07/25 01:03:11;;;;;;;30.35;21.20;;;;;;;20.67;57.85;98142.81;5091194;28;20084;-73
2021/07/25 01:06:05;;;;;;;31.75;21.77;;;;;;;20.62;57.65;98145.91;5089754;28;20043;-73
2021/07/25 01:08:53;;;;;;;30.63;21.88;;;;;;;20.58;58.02;98139.50;5090716;28;20047;-73
2021/07/25 01:11:19;;;;;;;31.15;23.38;;;;;;;20.57;58.24;98143.47;5080559;28;20089;-74
2021/07/25 01:13:49;;;;;;;29.75;21.42;;;;;;;20.56;58.45;98144.66;5091089;28;20024;-73
2021/07/25 01:16:15;;;;;;;30.05;21.77;;;;;;;20.56;58.57;98144.66;5091290;28;20028;-73
2021/07/25 01:18:50;;;;;;;30.70;21.42;;;;;;;20.56;58.58;98137.06;5090718;28;20115;-73
2021/07/25 01:21:18;;;;;;;29.80;21.58;;;;;;;20.58;58.78;98145.09;5090835;28;20082;-72
2021/07/25 01:23:45;;;;;;;31.25;20.20;;;;;;;20.59;58.74;98144.69;5090955;28;20162;-73
2021/07/25 01:26:13;;;;;;;31.60;21.40;;;;;;;20.61;59.03;98147.91;5091025;28;20036;-73
2021/07/25 01:28:43;;;;;;;30.58;20.02;;;;;;;20.63;58.95;98141.97;5090549;28;20024;-74
2021/07/25 01:31:30;;;;;;;30.05;21.00;;;;;;;20.65;58.87;98146.00;5089059;28;20370;-73
2021/07/25 01:33:58;;;;;;;27.83;20.85;;;;;;;20.65;59.11;98154.34;5091105;28;20115;-73
2021/07/25 01:36:23;;;;;;;28.20;20.23;;;;;;;20.65;59.11;98145.19;5091012;28;20028;-74
2021/07/25 01:38:52;;;;;;;28.67;21.33;;;;;;;20.66;59.31;98141.22;5092593;28;20024;-73
2021/07/25 01:41:18;;;;;;;24.92;19.35;;;;;;;20.67;59.09;98135.28;5088382;28;20031;-73
2021/07/25 01:43:50;;;;;;;28.65;20.17;;;;;;;20.70;59.01;98130.94;5089340;28;21632;-74
2021/07/25 01:46:15;;;;;;;31.20;21.58;;;;;;;20.73;59.15;98135.78;5091064;28;20024;-74
2021/07/25 01:48:42;;;;;;;27.63;20.52;;;;;;;20.73;59.29;98135.78;5090469;28;20377;-73
2021/07/25 01:51:08;;;;;;;26.13;20.35;;;;;;;20.73;59.16;98127.41;5090495;28;20031;-74
2021/07/25 01:53:33;;;;;;;28.88;20.85;;;;;;;20.75;58.93;98122.28;5090699;28;20024;-74
2021/07/25 01:55:59;;;;;;;29.15;20.63;;;;;;;20.75;59.17;98124.28;5087291;28;20031;-74
2021/07/25 01:58:25;;;;;;;29.70;20.25;;;;;;;20.75;59.08;98122.28;5090343;28;20393;-73
2021/07/25 02:00:50;;;;;;;26.33;20.35;;;;;;;20.74;59.05;98120.66;5090157;28;20462;-74
2021/07/25 02:03:23;;;;;;;27.33;20.42;;;;;;;20.74;59.14;98112.31;5090416;28;20079;-74
2021/07/25 02:05:49;;;;;;;33.58;20.45;;;;;;;20.72;59.26;98108.28;5090308;28;20134;-73
2021/07/25 02:08:16;;;;;;;28.25;20.63;;;;;;;20.68;59.29;98111.81;5090289;28;20085;-73
2021/07/25 02:10:49;;;;;;;30.02;21.15;;;;;;;20.66;59.10;98114.19;5091130;28;20077;-73
2021/07/25 02:13:16;;;;;;;27.10;18.98;;;;;;;20.62;59.06;98118.06;5094442;28;20032;-73
2021/07/25 02:15:42;;;;;;;28.77;20.13;;;;;;;20.60;59.28;98115.66;5095952;28;20020;-73
2021/07/25 02:18:07;;;;;;;28.05;20.27;;;;;;;20.56;59.11;98120.38;5095155;28;20058;-74
2021/07/25 02:20:33;;;;;;;28.13;20.17;;;;;;;20.52;59.25;98117.53;5094311;28;20381;-73
2021/07/25 02:22:58;;;;;;;28.52;19.85;;;;;;;20.50;59.87;98113.47;5093400;28;20042;-74
2021/07/25 02:25:24;;;;;;;24.33;18.25;;;;;;;20.46;59.45;98119.00;5094362;28;20024;-74
2021/07/25 02:27:49;;;;;;;27.40;19.40;;;;;;;20.43;59.50;98121.72;5095008;28;20063;-74
2021/07/25 02:30:15;;;;;;;33.15;19.40;;;;;;;20.39;59.60;98118.88;5093776;28;20075;-74
2021/07/25 02:32:40;;;;;;;25.92;18.10;;;;;;;20.38;59.49;98125.63;5092854;28;20031;-74
2021/07/25 02:35:06;;;;;;;25.80;18.85;;;;;;;20.39;59.52;98121.66;5090130;28;20024;-74
2021/07/25 02:37:31;;;;;;;24.63;18.50;;;;;;;20.40;59.54;98128.03;5090811;28;20656;-73
2021/07/25 02:39:57;;;;;;;26.25;18.52;;;;;;;20.45;59.44;98131.31;5092153;28;20032;-74
2021/07/25 02:42:22;;;;;;;25.63;18.13;;;;;;;20.47;59.80;98125.38;5092540;28;20380;-74
2021/07/25 02:44:47;;;;;;;23.35;16.67;;;;;;;20.49;59.70;98118.25;5092387;28;20028;-74
2021/07/25 02:47:13;;;;;;;25.70;17.17;;;;;;;20.52;59.52;98117.53;5092467;28;20024;-74
2021/07/25 02:49:38;;;;;;;23.88;17.38;;;;;;;20.55;59.49;98124.31;5093692;28;20410;-74
2021/07/25 02:52:04;;;;;;;21.95;17.42;;;;;;;20.59;59.54;98127.16;5094178;28;20109;-74
2021/07/25 02:54:29;;;;;;;27.67;17.50;;;;;;;20.61;59.25;98122.03;5094310;28;20031;-75
2021/07/25 02:56:54;;;;;;;28.40;18.85;;;;;;;20.60;59.39;98132.38;5096629;28;20032;-74
2021/07/25 02:59:20;;;;;;;26.15;18.92;;;;;;;20.61;59.63;98119.22;5090845;28;20028;-74
2021/07/25 03:01:47;;;;;;;28.50;19.23;;;;;;;20.60;59.54;98123.19;5094160;28;20044;-73
2021/07/25 03:04:12;;;;;;;26.73;20.00;;;;;;;20.58;59.70;98125.56;5093767;28;20072;-73
2021/07/25 03:06:38;;;;;;;24.40;18.60;;;;;;;20.56;59.52;98125.16;5093451;28;20486;-73
2021/07/25 03:09:03;;;;;;;23.20;17.40;;;;;;;20.58;59.77;98125.56;5093342;28;20028;-73
2021/07/25 03:11:29;;;;;;;27.15;18.83;;;;;;;20.57;59.57;98132.31;5097619;28;20024;-73
2021/07/25 03:13:54;;;;;;;26.45;18.45;;;;;;;20.55;59.83;98126.31;5092795;28;20048;-74
2021/07/25 03:16:19;;;;;;;26.23;18.00;;;;;;;20.54;59.80;98122.72;5092175;28;20142;-74
2021/07/25 03:18:44;;;;;;;23.75;17.05;;;;;;;20.55;59.75;98117.97;5092366;28;20405;-74
2021/07/25 03:21:10;;;;;;;23.23;16.55;;;;;;;20.51;59.71;98118.69;5092251;28;20028;-74
2021/07/25 03:23:35;;;;;;;26.25;18.42;;;;;;;20.48;59.89;98116.66;5093492;28;20016;-73
2021/07/25 03:26:01;;;;;;;23.63;17.58;;;;;;;20.46;59.75;98110.66;5092490;28;20493;-72
2021/07/25 03:28:26;;;;;;;26.55;18.10;;;;;;;20.42;60.44;98108.97;5092126;28;20020;-74
2021/07/25 03:30:51;;;;;;;25.45;17.95;;;;;;;20.35;60.08;98104.91;5092871;28;20024;-73
2021/07/25 03:33:18;;;;;;;25.65;17.95;;;;;;;20.35;60.04;98110.47;5093230;28;20028;-74
2021/07/25 03:35:43;;;;;;;24.73;17.48;;;;;;;20.33;60.14;98106.44;5093471;28;20016;-74
2021/07/25 03:38:09;;;;;;;25.95;18.55;;;;;;;20.36;60.06;98111.25;5092002;28;20027;-73
2021/07/25 03:40:36;;;;;;;26.55;17.48;;;;;;;20.37;60.07;98121.22;5093776;28;20063;-74
2021/07/25 03:43:02;;;;;;;26.20;17.60;;;;;;;20.34;60.15;98116.38;5093117;28;20053;-74
2021/07/25 03:45:28;;;;;;;25.73;17.58;;;;;;;20.35;60.10;98113.25;5093953;28;20099;-74
2021/07/25 03:47:53;;;;;;;25.48;17.15;;;;;;;20.34;60.21;98113.59;5091743;28;20623;-74
2021/07/25 03:50:19;;;;;;;24.90;17.70;;;;;;;20.33;60.06;98112.81;5092731;28;20028;-73
2021/07/25 03:52:45;;;;;;;28.33;17.85;;;;;;;20.35;60.27;98118.00;5095579;28;20038;-73
2021/07/25 03:55:11;;;;;;;23.98;16.88;;;;;;;20.35;60.13;98126.34;5091264;28;20477;-73
2021/07/25 03:57:37;;;;;;;24.42;16.77;;;;;;;20.35;60.05;98118.00;5091182;28;20024;-74
2021/07/25 04:00:06;;;;;;;25.05;17.30;;;;;;;20.34;60.09;98119.19;5090649;28;20032;-73
2021/07/25 04:02:31;;;;;;;21.52;15.98;;;;;;;20.35;60.16;98129.16;5092190;28;20020;-73
2021/07/25 04:04:57;;;;;;;24.25;15.65;;;;;;;20.35;60.14;98123.56;5090823;28;20043;-74
2021/07/25 04:07:22;;;;;;;21.77;16.55;;;;;;;20.36;60.17;98134.34;5090573;28;20023;-73
2021/07/25 04:09:47;;;;;;;24.05;16.33;;;;;;;20.35;60.02;98121.59;5090599;28;20042;-73
2021/07/25 04:12:13;;;;;;;21.63;15.55;;;;;;;20.37;59.94;98121.22;5091258;28;20105;-73
2021/07/25 04:14:38;;;;;;;21.23;15.43;;;;;;;20.39;60.05;98127.22;5092920;28;20470;-73
2021/07/25 04:17:04;;;;;;;23.50;15.80;;;;;;;20.40;59.96;98122.44;5090757;28;20141;-74
2021/07/25 04:19:33;;;;;;;25.35;16.08;;;;;;;20.45;59.89;98131.31;5092146;28;20106;-72
2021/07/25 04:21:58;;;;;;;21.17;14.65;;;;;;;20.48;60.05;98135.34;5090684;28;20043;-73
2021/07/25 04:24:25;;;;;;;21.65;15.70;;;;;;;20.52;59.98;98130.63;5091085;28;20477;-73
2021/07/25 04:26:51;;;;;;;21.77;15.55;;;;;;;20.54;60.03;98131.06;5090850;28;20034;-73
2021/07/25 04:29:17;;;;;;;20.70;15.15;;;;;;;20.58;59.79;98131.16;5090418;28;20114;-72
2021/07/25 04:31:42;;;;;;;24.13;16.27;;;;;;;20.62;59.68;98137.56;5090274;28;20134;-73
2021/07/25 04:34:08;;;;;;;22.65;16.48;;;;;;;20.65;59.85;98136.81;5090774;28;20062;-73
2021/07/25 04:36:34;;;;;;;24.63;16.83;;;;;;;20.69;59.77;98134.91;5090635;28;20512;-73
2021/07/25 04:39:00;;;;;;;21.40;16.27;;;;;;;20.73;59.68;98132.97;5090058;28;20020;-73
2021/07/25 04:41:30;;;;;;;22.83;16.67;;;;;;;20.77;59.52;98131.09;5090049;28;20047;-73
2021/07/25 04:44:04;;;;;;;25.38;15.75;;;;;;;20.78;59.43;98126.34;5088986;28;20462;-73
2021/07/25 04:46:29;;;;;;;21.85;15.52;;;;;;;20.80;59.80;98138.72;5089433;28;20024;-73
2021/07/25 04:49:17;;;;;;;22.35;15.70;;;;;;;20.84;59.66;98137.97;5090233;28;20031;-73
2021/07/25 04:51:45;;;;;;;22.27;15.15;;;;;;;20.89;59.59;98143.22;5090379;28;20028;-73
2021/07/25 04:54:15;;;;;;;20.80;14.73;;;;;;;20.92;59.55;98134.91;5088803;28;20019;-73
2021/07/25 04:57:01;;;;;;;21.70;15.02;;;;;;;20.99;59.62;98134.22;5090392;28;20022;-73
2021/07/25 04:59:30;;;;;;;20.45;14.57;;;;;;;21.04;59.52;98147.84;5088626;28;20173;-73
2021/07/25 05:02:04;;;;;;;19.50;14.45;;;;;;;21.11;59.36;98147.94;5092203;28;20051;-73
2021/07/25 05:04:30;;;;;;;20.17;14.40;;;;;;;21.19;59.35;98148.06;5087982;28;20040;-72
2021/07/25 05:06:57;;;;;;;21.77;14.35;;;;;;;21.27;59.35;98142.22;5090371;28;20043;-73
2021/07/25 05:09:23;;;;;;;22.05;14.30;;;;;;;21.37;59.46;98148.34;5090566;28;20040;-74
2021/07/25 05:12:00;;;;;;;22.55;15.00;;;;;;;21.46;59.06;98136.88;5089933;28;20024;-73
2021/07/25 05:14:31;;;;;;;19.83;13.65;;;;;;;21.54;58.72;98142.22;5092455;28;20076;-73
2021/07/25 05:17:11;;;;;;;20.58;14.07;;;;;;;21.62;58.96;98145.91;5089734;28;20035;-73
2021/07/25 05:20:00;;;;;;;22.98;14.23;;;;;;;21.72;58.67;98155.59;5089209;28;20024;-73
2021/07/25 05:22:43;;;;;;;20.73;14.02;;;;;;;21.79;58.47;98154.91;5093834;28;20073;-73
2021/07/25 05:25:09;;;;;;;18.73;14.40;;;;;;;21.85;58.65;98154.19;5088719;28;20139;-73
2021/07/25 05:27:47;;;;;;;18.73;14.23;;;;;;;21.93;58.41;98151.50;5090176;28;20055;-73
2021/07/25 05:30:16;;;;;;;21.67;14.20;;;;;;;21.96;58.08;98154.31;5089490;28;20372;-73
2021/07/25 05:32:41;;;;;;;17.08;13.18;;;;;;;22.00;58.07;98154.38;5090793;28;20262;-72
2021/07/25 05:35:07;;;;;;;19.50;13.65;;;;;;;22.03;58.12;98153.59;5090674;28;20438;-73
2021/07/25 05:37:33;;;;;;;21.80;14.65;;;;;;;22.08;57.39;98156.06;5090584;28;20074;-73
2021/07/25 05:39:58;;;;;;;20.45;14.15;;;;;;;22.11;57.71;98157.28;5090645;28;20059;-72
2021/07/25 05:42:24;;;;;;;17.73;14.18;;;;;;;22.14;57.67;98151.75;5091469;28;20508;-73
2021/07/25 05:44:50;;;;;;;19.63;14.02;;;;;;;22.18;57.72;98154.59;5091691;28;20111;-73
2021/07/25 05:47:15;;;;;;;21.80;14.70;;;;;;;22.23;57.62;98157.00;5094306;28;20020;-73
2021/07/25 05:49:42;;;;;;;19.45;13.70;;;;;;;22.26;57.56;98161.84;5094776;28;20023;-73
2021/07/25 05:52:07;;;;;;;19.00;12.85;;;;;;;22.31;57.62;98161.50;5094971;28;20027;-73
2021/07/25 05:54:32;;;;;;;21.30;14.13;;;;;;;22.39;57.80;98167.16;5096117;28;20016;-73
2021/07/25 05:56:58;;;;;;;19.85;13.40;;;;;;;22.44;57.63;98162.06;5095220;28;20780;-73
2021/07/25 05:59:23;;;;;;;19.13;14.43;;;;;;;22.50;57.71;98165.31;5094117;28;20024;-73
2021/07/25 06:01:48;;;;;;;19.58;13.77;;;;;;;22.54;56.95;98155.00;5095337;27;20388;-73
2021/07/25 06:04:14;;;;;;;18.65;13.60;;;;;;;22.61;57.52;98162.63;5094866;28;20055;-73
2021/07/25 06:06:39;;;;;;;19.85;14.70;;;;;;;22.68;57.18;98161.88;5095521;28;20077;-73
2021/07/25 06:09:06;;;;;;;18.23;13.52;;;;;;;22.70;57.12;98162.31;5093434;28;20089;-73
2021/07/25 06:11:31;;;;;;;25.45;12.85;;;;;;;22.74;56.89;98161.16;5093503;28;20023;-73
2021/07/25 06:13:57;;;;;;;18.13;13.55;;;;;;;22.82;56.93;98169.63;5093660;28;20393;-73
2021/07/25 06:16:23;;;;;;;19.40;13.55;;;;;;;22.86;57.13;98168.44;5093745;28;20403;-74
2021/07/25 06:18:48;;;;;;;20.63;13.77;;;;;;;22.93;56.54;98166.91;5092532;28;20476;-74
2021/07/25 06:21:18;;;;;;;16.75;13.27;;;;;;;22.94;56.56;98169.31;5091661;28;20111;-73
2021/07/25 06:23:45;;;;;;;20.88;13.73;;;;;;;22.99;56.58;98171.75;5093024;28;20035;-74
2021/07/25 06:26:10;;;;;;;18.83;13.02;;;;;;;23.05;56.68;98159.00;5093380;28;20028;-74
2021/07/25 06:28:36;;;;;;;19.30;13.38;;;;;;;23.14;56.56;98160.69;5093532;28;20487;-74
2021/07/25 06:31:01;;;;;;;19.10;13.27;;;;;;;23.19;56.27;98172.31;5092707;28;20028;-73
2021/07/25 06:33:28;;;;;;;21.27;14.27;;;;;;;23.26;56.59;98170.78;5093165;28;20020;-74
2021/07/25 06:35:55;;;;;;;22.08;13.98;;;;;;;23.32;56.38;98163.63;5093112;28;20028;-74
2021/07/25 06:38:20;;;;;;;18.25;14.20;;;;;;;23.43;56.42;98172.09;5092593;28;20024;-74
2021/07/25 06:40:48;;;;;;;17.60;12.90;;;;;;;23.53;56.32;98174.16;5092782;28;20039;-74
2021/07/25 06:43:15;;;;;;;18.20;13.60;;;;;;;23.64;56.19;98169.41;5092700;28;20051;-74
2021/07/25 06:45:41;;;;;;;15.80;12.60;;;;;;;23.76;56.23;98165.50;5094196;28;20027;-74
2021/07/25 06:48:23;;;;;;;16.88;12.73;;;;;;;23.88;55.97;98169.13;5092448;28;20031;-75
2021/07/25 06:50:57;;;;;;;18.63;12.40;;;;;;;23.96;55.80;98170.75;5091778;28;20085;-73
2021/07/25 06:53:25;;;;;;;16.35;13.07;;;;;;;24.05;55.67;98162.84;5091249;28;20066;-74
2021/07/25 06:55:52;;;;;;;20.55;13.27;;;;;;;24.15;55.20;98169.66;5092399;28;20036;-74
2021/07/25 06:58:18;;;;;;;15.48;12.07;;;;;;;24.21;54.96;98165.28;5092016;28;20490;-74
2021/07/25 07:00:43;;;;;;;14.60;11.57;;;;;;;24.29;54.74;98179.31;5093049;28;20031;-73
2021/07/25 07:03:09;;;;;;;15.10;11.43;;;;;;;24.36;54.59;98162.53;5090590;28;20028;-74
2021/07/25 07:05:34;;;;;;;15.68;11.73;;;;;;;24.46;54.44;98175.75;5092377;28;20073;-73
2021/07/25 07:08:06;;;;;;;14.13;10.80;;;;;;;24.51;53.83;98171.78;5092009;28;20060;-73
2021/07/25 07:10:37;;;;;;;14.43;11.32;;;;;;;24.57;54.04;98173.00;5090506;28;20024;-74
2021/07/25 07:13:08;;;;;;;14.25;11.18;;;;;;;24.65;53.50;98183.03;5091869;28;20016;-74
2021/07/25 07:15:36;;;;;;;15.23;11.18;;;;;;;24.69;52.67;98183.03;5090750;28;20028;-73
2021/07/25 07:18:02;;;;;;;12.13;9.57;;;;;;;24.71;52.61;98189.03;5091575;28;20482;-74
2021/07/25 07:20:28;;;;;;;16.10;11.05;;;;;;;24.80;52.87;98191.47;5094135;28;20111;-74
2021/07/25 07:23:03;;;;;;;13.27;10.73;;;;;;;24.86;51.39;98195.47;5091731;28;20107;-74
2021/07/25 07:25:34;;;;;;;14.70;10.30;;;;;;;24.92;51.47;98187.47;5092301;28;20377;-73
2021/07/25 07:28:00;;;;;;;13.73;10.50;;;;;;;24.98;51.05;98185.88;5093714;28;20032;-73
2021/07/25 07:30:25;;;;;;;14.38;11.18;;;;;;;25.01;51.37;98185.06;5091825;28;20351;-74
2021/07/25 07:32:51;;;;;;;15.07;10.25;;;;;;;25.11;51.36;98197.50;5092071;28;20461;-73
2021/07/25 07:35:25;;;;;;;11.98;9.43;;;;;;;25.17;50.59;98195.88;5090314;28;20430;-74
2021/07/25 07:37:51;;;;;;;15.10;10.60;;;;;;;25.21;50.09;98199.50;5091487;28;20028;-75
2021/07/25 07:40:18;;;;;;;14.00;9.48;;;;;;;25.26;50.64;98199.09;5093401;28;20028;-74
2021/07/25 07:42:44;;;;;;;12.00;9.48;;;;;;;25.34;50.21;98199.09;5093025;28;20020;-74
2021/07/25 07:45:10;;;;;;;13.93;9.82;;;;;;;25.39;49.58;98201.50;5092133;28;20032;-74
2021/07/25 07:47:35;;;;;;;18.33;11.00;;;;;;;25.44;49.56;98201.13;5090877;28;20683;-74
2021/07/25 07:50:01;;;;;;;13.85;10.48;;;;;;;25.49;48.71;98197.09;5094191;28;20039;-72
2021/07/25 07:52:26;;;;;;;15.95;9.55;;;;;;;25.53;49.28;98203.50;5092795;28;20068;-73
2021/07/25 07:54:51;;;;;;;16.35;10.13;;;;;;;25.55;48.00;98209.53;5092774;28;20020;-73
2021/07/25 07:57:17;;;;;;;15.90;10.13;;;;;;;25.59;48.13;98206.69;5092449;28;20024;-73
2021/07/25 07:59:43;;;;;;;13.13;10.00;;;;;;;25.63;48.56;98215.91;5092292;28;20109;-72
2021/07/25 08:02:09;;;;;;;13.90;10.88;;;;;;;25.66;48.12;98207.50;5092571;28;20533;-73
2021/07/25 08:04:35;;;;;;;16.75;11.63;;;;;;;25.70;48.16;98213.09;5092471;28;20517;-73
2021/07/25 08:07:00;;;;;;;15.48;11.63;;;;;;;25.73;47.87;98212.28;5094713;28;20032;-72
2021/07/25 08:09:25;;;;;;;13.07;10.23;;;;;;;25.80;48.04;98225.50;5090569;28;20100;-72
2021/07/25 08:11:51;;;;;;;13.35;10.50;;;;;;;25.92;48.24;98225.09;5092475;28;20028;-73
2021/07/25 08:14:19;;;;;;;15.38;11.80;;;;;;;26.03;48.16;98215.81;5092345;28;20461;-72
2021/07/25 08:16:45;;;;;;;18.92;11.70;;;;;;;26.09;47.17;98226.22;5092182;28;20028;-74
2021/07/25 08:19:10;;;;;;;21.00;14.48;;;;;;;26.11;45.98;98226.63;5089308;28;20039;-73
2021/07/25 08:21:36;;;;;;;14.23;10.90;;;;;;;26.07;45.38;98228.66;5090861;28;20028;-73
2021/07/25 08:24:02;;;;;;;14.55;10.05;;;;;;;26.04;45.44;98229.44;5091890;28;20031;-73
2021/07/25 08:26:28;;;;;;;14.32;10.07;;;;;;;26.02;45.90;98231.88;5091008;28;20024;-73
2021/07/25 08:28:53;;;;;;;12.38;9.90;;;;;;;25.98;45.29;98240.31;5090579;28;20024;-74
2021/07/25 08:31:19;;;;;;;15.00;9.40;;;;;;;25.95;45.14;98243.94;5090417;28;20496;-73
2021/07/25 08:33:44;;;;;;;12.27;9.23;;;;;;;25.86;44.89;98247.19;5090798;28;20032;-73
2021/07/25 08:36:09;;;;;;;13.10;8.85;;;;;;;25.84;45.48;98248.78;5090573;28;20032;-73
2021/07/25 08:38:35;;;;;;;11.55;9.00;;;;;;;25.77;44.60;98252.41;5090698;28;20042;-73
2021/07/25 08:41:30;;;;;;;12.40;8.82;;;;;;;25.70;45.04;98250.41;5090352;28;20765;-73
2021/07/25 08:44:34;;;;;;;10.38;7.43;;;;;;;25.69;45.06;98262.84;5091038;28;20035;-74
2021/07/25 08:47:00;;;;;;;14.07;9.15;;;;;;;25.68;45.27;98257.63;5090606;28;20093;-73
2021/07/25 08:49:49;;;;;;;13.88;9.70;;;;;;;25.65;45.01;98272.47;5091549;28;20477;-72
2021/07/25 08:52:21;;;;;;;15.98;9.70;;;;;;;25.53;44.68;98265.28;5091713;28;20035;-72
2021/07/25 08:54:47;;;;;;;11.77;8.55;;;;;;;25.47;44.61;98267.69;5091436;28;20051;-72
2021/07/25 08:57:14;;;;;;;11.15;8.57;;;;;;;25.46;45.31;98270.88;5091612;28;20030;-72
2021/07/25 08:59:50;;;;;;;10.65;8.52;;;;;;;25.44;45.34;98265.69;5091332;28;20051;-73
2021/07/25 09:02:27;;;;;;;11.57;8.95;;;;;;;25.38;44.97;98268.03;5091237;28;20027;-73
2021/07/25 09:04:54;;;;;;;13.38;10.00;;;;;;;25.30;44.68;98274.84;5091108;28;20048;-73
2021/07/25 09:07:22;;;;;;;17.02;10.60;;;;;;;25.23;45.20;98270.06;5091369;28;20023;-73
2021/07/25 09:09:51;;;;;;;16.15;10.30;;;;;;;25.15;45.11;98279.66;5091065;28;20016;-73
2021/07/25 09:12:18;;;;;;;14.15;10.60;;;;;;;25.03;45.71;98278.06;5091589;28;20509;-73
2021/07/25 09:14:50;;;;;;;12.02;10.02;;;;;;;24.97;46.24;98279.63;5091479;28;20084;-72
2021/07/25 09:17:16;;;;;;;12.57;9.85;;;;;;;24.87;47.03;98292.44;5091473;28;20390;-72
2021/07/25 09:20:21;;;;;;;14.90;9.98;;;;;;;24.66;47.53;98299.56;5090481;28;20091;-72
2021/07/25 09:22:49;;;;;;;17.88;11.48;;;;;;;24.40;48.07;98299.88;5091198;28;20023;-72
2021/07/25 09:25:14;;;;;;;16.03;11.50;;;;;;;24.28;48.42;98295.41;5090771;28;20038;-73
2021/07/25 09:27:40;;;;;;;14.43;10.77;;;;;;;24.22;48.89;98289.38;5090755;28;20110;-73
2021/07/25 09:30:17;;;;;;;13.43;10.80;;;;;;;24.16;49.23;98288.94;5090943;28;20028;-72
2021/07/25 09:32:44;;;;;;;14.98;11.05;;;;;;;24.11;49.36;98286.50;5091175;28;20064;-73
2021/07/25 09:35:30;;;;;;;15.05;11.00;;;;;;;24.04;49.72;98281.69;5090910;28;20032;-73
2021/07/25 09:38:17;;;;;;;14.90;10.98;;;;;;;23.99;50.08;98289.66;5090617;28;20496;-73
2021/07/25 09:40:44;;;;;;;16.55;11.77;;;;;;;23.97;50.60;98290.00;5090326;28;20474;-73
2021/07/25 09:43:11;;;;;;;16.90;12.27;;;;;;;23.93;51.02;98300.38;5091205;28;20385;-73
2021/07/25 09:45:58;;;;;;;16.48;12.00;;;;;;;23.89;50.69;98299.56;5090951;28;20050;-73
2021/07/25 09:48:33;;;;;;;14.80;11.23;;;;;;;23.89;51.14;98296.75;5090499;28;20029;-73
2021/07/25 09:51:19;;;;;;;18.02;12.07;;;;;;;23.86;51.08;98298.34;5090996;28;20036;-72
2021/07/25 09:53:47;;;;;;;15.77;12.05;;;;;;;23.78;51.07;98299.47;5091198;28;20077;-73
2021/07/25 09:56:14;;;;;;;15.88;12.27;;;;;;;23.72;51.43;98296.25;5089552;28;20024;-73
2021/07/25 09:58:41;;;;;;;16.58;11.82;;;;;;;23.69;51.22;98302.63;5090488;28;20017;-73
2021/07/25 10:01:06;;;;;;;14.35;11.50;;;;;;;23.63;51.55;98302.19;5090577;28;20024;-73
2021/07/25 10:03:34;;;;;;;16.85;12.20;;;;;;;23.58;51.46;98305.34;5091154;28;20071;-73
2021/07/25 10:06:19;;;;;;;18.00;13.23;;;;;;;23.54;51.79;98312.09;5091311;28;20020;-73
2021/07/25 10:08:45;;;;;;;17.92;12.73;;;;;;;23.50;51.89;98306.47;5090757;28;20031;-73
2021/07/25 10:11:17;;;;;;;16.50;11.95;;;;;;;23.48;51.84;98318.03;5090965;28;20030;-74
2021/07/25 10:13:44;;;;;;;16.23;12.43;;;;;;;23.43;51.68;98318.44;5091309;28;20107;-74
2021/07/25 10:16:10;;;;;;;14.02;11.23;;;;;;;23.44;52.08;98322.81;5090814;28;20103;-73
2021/07/25 10:18:36;;;;;;;15.77;12.00;;;;;;;23.40;51.93;98316.41;5090873;28;20575;-72
2021/07/25 10:21:03;;;;;;;14.02;11.27;;;;;;;23.40;52.09;98322.00;5090658;28;20376;-73
2021/07/25 10:23:36;;;;;;;15.30;12.35;;;;;;;23.37;52.10;98321.94;5091223;28;20032;-73
2021/07/25 10:26:02;;;;;;;13.50;11.68;;;;;;;23.43;52.62;98323.22;5090868;28;20591;-73
2021/07/25 10:28:32;;;;;;;13.90;11.98;;;;;;;23.48;52.81;98322.84;5090756;28;20115;-73
2021/07/25 10:30:59;;;;;;;14.43;11.88;;;;;;;23.52;53.35;98315.31;5090826;28;20039;-73
2021/07/25 10:33:26;;;;;;;16.15;12.45;;;;;;;23.52;52.67;98318.09;5093977;28;20028;-72
2021/07/25 10:35:55;;;;;;;15.45;12.82;;;;;;;23.52;52.63;98322.88;5094785;28;20043;-72
2021/07/25 10:38:20;;;;;;;15.75;12.20;;;;;;;23.56;52.79;98323.72;5094205;28;20039;-73
2021/07/25 10:40:48;;;;;;;14.40;12.07;;;;;;;23.60;52.79;98324.53;5094186;28;20032;-73
2021/07/25 10:43:15;;;;;;;30.40;13.68;;;;;;;23.64;52.80;98326.16;5094338;28;20051;-73
2021/07/25 10:45:41;;;;;;;15.65;12.88;;;;;;;23.65;52.74;98329.78;5094339;28;20099;-73
2021/07/25 10:48:14;;;;;;;14.75;11.80;;;;;;;23.64;52.90;98325.38;5093834;28;20414;-72
2021/07/25 10:50:39;;;;;;;16.00;12.18;;;;;;;23.58;52.54;98327.75;5094117;28;20094;-73
2021/07/25 10:53:05;;;;;;;15.05;12.35;;;;;;;23.51;52.15;98313.69;5093899;28;20120;-73
2021/07/25 10:55:41;;;;;;;14.75;12.43;;;;;;;23.47;52.06;98327.63;5093978;28;20103;-72
2021/07/25 10:58:15;;;;;;;15.73;12.30;;;;;;;23.38;52.23;98321.59;5093427;28;20028;-69
2021/07/25 11:00:53;;;;;;;12.88;11.02;;;;;;;23.35;52.77;98319.56;5093594;28;20427;-69
2021/07/25 11:03:24;;;;;;;17.85;12.38;;;;;;;23.34;53.35;98318.72;5093752;28;20152;-72
2021/07/25 11:06:01;;;;;;;16.98;12.10;;;;;;;23.31;53.20;98318.72;5085989;28;20036;-74
2021/07/25 11:08:35;;;;;;;14.48;11.30;;;;;;;23.27;54.07;98320.66;5093352;28;20029;-71
2021/07/25 11:11:01;;;;;;;13.55;10.85;;;;;;;23.22;54.02;98327.44;5093227;28;20469;-69
2021/07/25 11:13:40;;;;;;;13.55;10.93;;;;;;;23.19;54.20;98326.16;5090678;28;20027;-70
2021/07/25 11:16:32;;;;;;;16.30;11.70;;;;;;;23.16;54.65;98326.13;5091068;28;20103;-70
2021/07/25 11:19:20;;;;;;;15.38;11.80;;;;;;;23.11;54.79;98320.88;5088005;28;20043;-70
2021/07/25 11:21:51;;;;;;;13.13;11.73;;;;;;;23.02;55.02;98318.41;5092690;28;20122;-71
2021/07/25 11:24:19;;;;;;;13.75;11.38;;;;;;;22.99;55.01;98310.78;5092776;28;20111;-70